createdAt,value
2019-03-06T00:01:18.220Z,65.40
2019-03-06T00:04:12.710Z,71.22
2019-03-06T00:07:07.089Z,85.72
2019-03-06T00:10:01.626Z,81.08
2019-03-06T00:12:58.005Z,132.85
2019-03-06T00:15:53.810Z,61.95
2019-03-06T00:18:48.474Z,69.03
2019-03-06T00:21:43.082Z,62.43
2019-03-06T00:24:37.900Z,75.65
2019-03-06T00:27:32.737Z,72.78
2019-03-06T00:30:27.042Z,83.67
2019-03-06T00:33:21.639Z,68.47
2019-03-06T00:36:27.250Z,91.35
2019-03-06T00:39:21.978Z,79.85
2019-03-06T00:42:16.394Z,87.05
2019-03-06T00:45:11.860Z,98.33
2019-03-06T00:48:06.381Z,87.78
2019-03-06T00:51:01.362Z,104.17
2019-03-06T00:53:55.695Z,104.65
2019-03-06T00:56:50.516Z,77.80
2019-03-06T00:59:45.126Z,106.55
2019-03-06T01:02:39.271Z,79.50
2019-03-06T01:05:33.581Z,107.05
2019-03-06T01:08:28.248Z,94.73
2019-03-06T01:11:22.960Z,106.67
2019-03-06T01:14:17.494Z,115.25
2019-03-06T01:17:12.032Z,140.82
2019-03-06T01:20:06.644Z,136.37
2019-03-06T01:23:01.108Z,122.72
2019-03-06T01:25:55.378Z,124.05
2019-03-06T01:28:49.889Z,114.47
2019-03-06T01:31:44.353Z,106.65
2019-03-06T01:34:55.734Z,104.45
2019-03-06T01:38:00.061Z,111.20
2019-03-06T01:41:11.736Z,115.77
2019-03-06T01:44:10.253Z,140.57
2019-03-06T01:47:04.858Z,152.00
2019-03-06T01:49:59.426Z,155.37
2019-03-06T01:52:54.047Z,165.65
2019-03-06T01:55:48.462Z,150.22
2019-03-06T01:58:43.128Z,134.78
2019-03-06T02:01:37.966Z,138.82
2019-03-06T02:04:32.563Z,131.55
2019-03-06T02:07:26.970Z,145.55
2019-03-06T02:10:21.761Z,107.15
2019-03-06T02:13:17.070Z,116.97
2019-03-06T02:16:11.892Z,130.05
2019-03-06T02:19:06.942Z,119.80
2019-03-06T02:22:02.715Z,129.27
2019-03-06T02:24:57.287Z,113.62
2019-03-06T02:27:51.874Z,135.95
2019-03-06T02:30:46.386Z,131.95
2019-03-06T02:33:41.215Z,141.85
2019-03-06T02:36:35.630Z,129.85
2019-03-06T02:39:30.178Z,124.92
2019-03-06T02:42:24.502Z,120.85
2019-03-06T02:45:19.590Z,116.22
2019-03-06T02:48:13.987Z,124.03
2019-03-06T02:51:09.330Z,115.97
2019-03-06T02:54:03.794Z,124.33
2019-03-06T02:56:58.524Z,129.50
2019-03-06T03:00:06.887Z,101.03
2019-03-06T03:03:11.186Z,112.57
2019-03-06T03:06:09.216Z,108.00
2019-03-06T03:09:03.251Z,115.20
2019-03-06T03:11:59.241Z,110.05
2019-03-06T03:14:54.130Z,82.97
2019-03-06T03:17:48.521Z,99.62
2019-03-06T03:20:43.259Z,94.52
2019-03-06T03:23:38.206Z,73.42
2019-03-06T03:26:33.302Z,96.70
2019-03-06T03:29:28.311Z,91.50
2019-03-06T03:32:23.319Z,75.70
2019-03-06T03:35:17.756Z,92.33
2019-03-06T03:38:12.324Z,71.92
2019-03-06T03:41:07.132Z,64.07
2019-03-06T03:44:02.066Z,67.53
2019-03-06T03:46:57.000Z,81.57
2019-03-06T03:49:51.346Z,67.60
2019-03-06T03:52:46.448Z,81.15
2019-03-06T03:55:40.853Z,63.68
2019-03-06T03:58:35.402Z,65.17
2019-03-06T04:01:30.152Z,63.23
2019-03-06T04:04:25.432Z,64.10
2019-03-06T04:07:20.341Z,63.33
2019-03-06T04:13:42.437Z,94.58
2019-03-06T04:16:37.888Z,101.65
2019-03-06T04:19:32.716Z,85.80
2019-03-06T04:22:27.497Z,91.02
2019-03-06T04:25:22.640Z,90.07
2019-03-06T04:28:18.059Z,78.15
2019-03-06T04:31:12.948Z,66.90
2019-03-06T04:34:08.130Z,73.92
2019-03-06T04:37:03.178Z,59.33
2019-03-06T04:39:57.647Z,64.50
2019-03-06T04:42:53.260Z,52.58
2019-03-06T04:45:48.079Z,53.33
2019-03-06T04:48:42.726Z,62.30
2019-03-06T04:51:37.361Z,60.88
2019-03-06T04:54:35.790Z,55.78
2019-03-06T04:57:34.572Z,60.83
2019-03-06T05:00:46.842Z,58.10
2019-03-06T05:03:43.791Z,50.25
2019-03-06T05:06:38.468Z,53.68
2019-03-06T05:09:33.023Z,51.42
2019-03-06T05:12:27.887Z,56.00
2019-03-06T05:16:07.914Z,59.77
2019-03-06T05:19:50.112Z,49.25
2019-03-06T05:23:42.094Z,55.90
2019-03-06T05:27:04.957Z,51.70
2019-03-06T05:30:01.174Z,49.38
2019-03-06T05:33:04.831Z,57.00
2019-03-06T05:36:41.815Z,57.60
2019-03-06T05:39:38.204Z,50.30
2019-03-06T05:42:33.527Z,52.05
2019-03-06T05:45:29.859Z,54.77
2019-03-06T05:48:24.436Z,61.37
2019-03-06T05:51:20.214Z,55.47
2019-03-06T05:54:16.454Z,51.60
2019-03-06T05:57:11.124Z,64.22
2019-03-06T06:00:18.521Z,57.98
2019-03-06T06:03:09.447Z,49.53
2019-03-06T06:09:56.937Z,59.00
2019-03-06T06:12:52.083Z,49.45
2019-03-06T06:19:08.031Z,48.50
2019-03-06T06:22:16.023Z,56.98
2019-03-06T06:25:16.631Z,49.58
2019-03-06T06:28:29.200Z,54.05
2019-03-06T06:31:22.839Z,43.75
2019-03-06T06:34:19.578Z,52.00
2019-03-06T06:37:14.656Z,43.33
2019-03-06T06:40:21.342Z,43.80
2019-03-06T06:43:17.879Z,49.13
2019-03-06T06:46:15.485Z,43.90
2019-03-06T06:49:10.609Z,42.93
2019-03-06T06:52:37.124Z,51.05
2019-03-06T06:56:21.284Z,39.33
2019-03-06T07:00:19.333Z,47.43
2019-03-06T07:04:22.486Z,43.83
2019-03-06T07:07:36.170Z,44.85
2019-03-06T07:10:39.774Z,38.88
2019-03-06T07:14:00.258Z,44.18
2019-03-06T07:17:05.540Z,43.87
2019-03-06T07:20:18.027Z,43.38
2019-03-06T07:23:38.050Z,58.85
2019-03-06T07:26:53.687Z,52.78
2019-03-06T07:30:09.994Z,47.50
2019-03-06T07:33:21.445Z,45.00
2019-03-06T07:36:40.524Z,50.78
2019-03-06T07:39:56.064Z,42.60
2019-03-06T07:47:07.887Z,52.03
2019-03-06T07:50:13.075Z,50.90
2019-03-06T07:54:14.537Z,47.00
2019-03-06T07:57:40.457Z,46.10
2019-03-06T08:00:35.479Z,53.90
2019-03-06T08:03:39.045Z,51.58
2019-03-06T08:06:33.456Z,53.45
2019-03-06T08:09:28.627Z,53.50
2019-03-06T08:12:49.617Z,49.75
2019-03-06T08:15:52.414Z,50.30
2019-03-06T08:18:57.078Z,52.43
2019-03-06T08:22:16.155Z,63.15
2019-03-06T08:25:26.956Z,48.90
2019-03-06T08:28:23.541Z,49.88
2019-03-06T08:31:26.309Z,56.80
2019-03-06T08:34:22.778Z,53.10
2019-03-06T08:37:17.572Z,44.13
2019-03-06T08:40:14.273Z,54.10
2019-03-06T08:43:12.042Z,50.30
2019-03-06T08:46:34.574Z,50.58
2019-03-06T08:49:47.436Z,65.80
2019-03-06T08:52:58.804Z,56.88
2019-03-06T08:56:07.456Z,46.90
2019-03-06T08:59:21.776Z,46.37
2019-03-06T09:02:53.403Z,55.15
2019-03-06T09:06:07.603Z,51.73
2019-03-06T09:09:23.699Z,53.40
2019-03-06T09:12:39.128Z,52.35
2019-03-06T09:15:52.614Z,49.83
2019-03-06T09:19:16.755Z,55.00
2019-03-06T09:22:20.039Z,50.75
2019-03-06T09:25:40.748Z,43.87
2019-03-06T09:28:49.332Z,53.58
2019-03-06T09:32:05.979Z,47.38
2019-03-06T09:35:41.978Z,52.50
2019-03-06T09:38:58.562Z,49.08
2019-03-06T09:42:21.583Z,47.17
2019-03-06T09:45:45.105Z,49.58
2019-03-06T09:48:59.642Z,46.85
2019-03-06T09:52:16.626Z,46.98
2019-03-06T09:55:34.761Z,46.50
2019-03-06T09:58:44.349Z,46.75
2019-03-06T10:02:06.520Z,46.28
2019-03-06T10:05:12.168Z,47.98
2019-03-06T10:08:30.948Z,45.88
2019-03-06T10:11:52.924Z,42.98
2019-03-06T10:14:57.966Z,44.65
2019-03-06T10:18:14.307Z,44.10
2019-03-06T10:21:11.611Z,47.55
2019-03-06T10:24:08.681Z,43.80
2019-03-06T10:27:10.928Z,45.17
2019-03-06T10:30:18.721Z,48.05
2019-03-06T10:33:17.159Z,45.33
2019-03-06T10:36:49.258Z,56.23
2019-03-06T10:39:45.681Z,46.30
2019-03-06T10:42:40.547Z,57.58
2019-03-06T10:45:41.792Z,49.53
2019-03-06T10:48:39.925Z,52.08
2019-03-06T10:51:41.835Z,46.48
2019-03-06T10:54:44.337Z,47.33
2019-03-06T10:57:36.667Z,49.35
2019-03-06T11:01:15.179Z,47.38
2019-03-06T11:04:43.036Z,49.80
2019-03-06T11:07:51.546Z,53.58
2019-03-06T11:14:46.427Z,45.70
2019-03-06T11:17:57.150Z,45.92
2019-03-06T11:21:14.218Z,48.30
2019-03-06T11:24:50.826Z,43.13
2019-03-06T11:27:54.717Z,46.75
2019-03-06T11:30:56.435Z,54.60
2019-03-06T11:33:55.339Z,45.38
2019-03-06T11:36:51.206Z,45.98
2019-03-06T11:39:46.638Z,45.80
2019-03-06T11:42:43.797Z,50.28
2019-03-06T11:45:40.319Z,55.35
2019-03-06T11:48:35.728Z,52.03
2019-03-06T11:52:44.345Z,55.45
2019-03-06T11:56:31.209Z,51.40
2019-03-06T12:00:17.288Z,47.88
2019-03-06T12:03:20.429Z,54.38
2019-03-06T12:06:15.819Z,50.83
2019-03-06T12:09:34.768Z,55.63
2019-03-06T12:12:35.478Z,46.85
2019-03-06T12:15:30.169Z,48.92
2019-03-06T12:18:57.820Z,55.38
2019-03-06T12:21:57.505Z,50.73
2019-03-06T12:24:54.442Z,44.53
2019-03-06T12:27:50.194Z,53.48
2019-03-06T12:30:45.317Z,50.35
2019-03-06T12:33:40.775Z,49.77
2019-03-06T12:36:36.175Z,71.40
2019-03-06T12:39:31.104Z,54.35
2019-03-06T12:42:25.978Z,45.33
2019-03-06T12:45:21.889Z,44.88
2019-03-06T12:48:17.121Z,53.10
2019-03-06T12:51:12.120Z,42.25
2019-03-06T12:54:06.904Z,48.15
2019-03-06T12:57:02.770Z,50.65
2019-03-06T12:59:59.352Z,45.03
2019-03-06T13:02:53.925Z,41.68
2019-03-06T13:05:48.749Z,42.70
2019-03-06T13:08:50.319Z,50.88
2019-03-06T13:11:44.951Z,41.50
2019-03-06T13:14:41.446Z,48.07
2019-03-06T13:17:36.496Z,51.15
2019-03-06T13:20:31.835Z,42.10
2019-03-06T13:23:27.990Z,42.08
2019-03-06T13:26:22.871Z,41.65
2019-03-06T13:29:17.603Z,40.65
2019-03-06T13:32:16.759Z,45.98
2019-03-06T13:35:18.863Z,46.18
2019-03-06T13:38:15.849Z,41.23
2019-03-06T13:41:10.361Z,44.70
2019-03-06T13:44:07.722Z,38.20
2019-03-06T13:47:05.299Z,42.40
2019-03-06T13:50:01.687Z,47.70
2019-03-06T13:52:57.254Z,41.18
2019-03-06T13:55:53.370Z,38.83
2019-03-06T13:58:48.584Z,45.05
2019-03-06T14:01:44.326Z,49.83
2019-03-06T14:04:40.653Z,44.98
2019-03-06T14:07:38.822Z,42.73
2019-03-06T14:10:33.342Z,44.73
2019-03-06T14:13:29.011Z,47.30
2019-03-06T14:16:24.679Z,49.00
2019-03-06T14:19:21.493Z,46.85
2019-03-06T14:22:16.237Z,48.00
2019-03-06T14:25:12.430Z,41.90
2019-03-06T14:28:08.824Z,45.23
2019-03-06T14:31:05.841Z,44.03
2019-03-06T14:34:02.118Z,43.90
2019-03-06T14:36:56.927Z,45.67
2019-03-06T14:39:51.986Z,42.40
2019-03-06T14:42:48.321Z,44.80
2019-03-06T14:45:43.022Z,45.80
2019-03-06T14:48:40.778Z,45.60
2019-03-06T14:51:45.687Z,47.90
2019-03-06T14:54:40.546Z,43.58
2019-03-06T14:57:35.166Z,45.63
2019-03-06T15:00:30.487Z,51.60
2019-03-06T15:03:26.315Z,50.17
2019-03-06T15:06:23.141Z,49.40
2019-03-06T15:09:29.154Z,51.35
2019-03-06T15:12:24.630Z,47.67
2019-03-06T15:15:20.275Z,50.43
2019-03-06T15:18:15.320Z,48.87
2019-03-06T15:21:10.640Z,49.40
2019-03-06T15:24:05.325Z,51.75
2019-03-06T15:27:00.963Z,45.78
2019-03-06T15:29:58.913Z,40.45
2019-03-06T15:32:54.741Z,48.02
2019-03-06T15:35:50.183Z,47.33
2019-03-06T15:38:46.366Z,50.45
2019-03-06T15:41:42.429Z,48.02
2019-03-06T15:44:37.842Z,44.85
2019-03-06T15:47:33.996Z,44.33
2019-03-06T15:50:31.337Z,43.52
2019-03-06T15:53:27.098Z,39.67
2019-03-06T15:56:22.444Z,41.33
2019-03-06T15:59:18.389Z,46.08
2019-03-06T16:02:13.350Z,43.75
2019-03-06T16:05:11.519Z,44.18
2019-03-06T16:08:07.027Z,45.05
2019-03-06T16:11:03.934Z,49.95
2019-03-06T16:13:58.878Z,60.03
2019-03-06T16:16:55.656Z,64.25
2019-03-06T16:19:50.698Z,58.63
2019-03-06T16:22:46.205Z,60.73
2019-03-06T16:25:41.167Z,54.27
2019-03-06T16:28:36.177Z,59.08
2019-03-06T16:31:30.887Z,50.45
2019-03-06T16:34:25.669Z,52.05
2019-03-06T16:37:20.511Z,49.45
2019-03-06T16:40:18.158Z,64.65
2019-03-06T16:43:13.326Z,52.30
2019-03-06T16:46:07.753Z,46.90
2019-03-06T16:49:02.825Z,57.70
2019-03-06T16:51:59.152Z,43.75
2019-03-06T16:54:54.155Z,42.65
2019-03-06T16:57:49.335Z,47.08
2019-03-06T17:00:44.387Z,43.70
2019-03-06T17:03:43.388Z,47.67
2019-03-06T17:06:37.951Z,56.50
2019-03-06T17:09:32.700Z,47.73
2019-03-06T17:12:27.462Z,45.85
2019-03-06T17:15:23.354Z,46.65
2019-03-06T17:18:18.189Z,49.18
2019-03-06T17:21:14.000Z,46.58
2019-03-06T17:24:10.434Z,46.35
2019-03-06T17:27:05.698Z,40.83
2019-03-06T17:30:01.397Z,44.27
2019-03-06T17:33:06.882Z,44.75
2019-03-06T17:36:02.144Z,45.83
2019-03-06T17:38:58.140Z,43.20
2019-03-06T17:41:53.227Z,41.05
2019-03-06T17:44:47.779Z,45.90
2019-03-06T17:47:42.423Z,42.35
2019-03-06T17:50:37.360Z,39.92
2019-03-06T17:53:33.070Z,47.80
2019-03-06T17:56:27.359Z,41.70
2019-03-06T17:59:21.637Z,41.33
2019-03-06T18:02:16.182Z,36.60
2019-03-06T18:05:11.839Z,37.70
2019-03-06T18:08:06.614Z,36.93
2019-03-06T18:11:01.654Z,35.80
2019-03-06T18:13:56.287Z,35.63
2019-03-06T18:16:51.190Z,38.28
2019-03-06T18:19:46.223Z,41.28
2019-03-06T18:22:41.042Z,42.50
2019-03-06T18:25:35.667Z,37.93
2019-03-06T18:28:30.795Z,40.80
2019-03-06T18:31:25.265Z,48.55
2019-03-06T18:34:21.111Z,42.93
2019-03-06T18:37:15.596Z,39.60
2019-03-06T18:40:11.512Z,49.55
2019-03-06T18:43:06.522Z,53.77
2019-03-06T18:46:01.062Z,47.23
2019-03-06T18:48:56.989Z,47.60
2019-03-06T18:51:53.239Z,40.60
2019-03-06T18:54:47.437Z,55.87
2019-03-06T18:57:42.036Z,46.77
2019-03-06T19:00:37.552Z,52.08
2019-03-06T19:03:32.307Z,59.93
2019-03-06T19:06:28.149Z,57.35
2019-03-06T19:09:23.505Z,71.53
2019-03-06T19:12:18.356Z,46.68
2019-03-06T19:15:15.138Z,60.98
2019-03-06T19:18:10.061Z,67.60
2019-03-06T19:21:04.928Z,71.55
2019-03-06T19:23:59.766Z,70.60
2019-03-06T19:26:54.348Z,53.90
2019-03-06T19:29:48.869Z,56.92
2019-03-06T19:32:43.350Z,52.43
2019-03-06T19:35:39.195Z,67.87
2019-03-06T19:38:34.236Z,73.05
2019-03-06T19:41:29.429Z,58.58
2019-03-06T19:44:24.123Z,77.95
2019-03-06T19:47:19.042Z,82.02
2019-03-06T19:50:17.664Z,72.53
2019-03-06T19:53:12.531Z,67.05
2019-03-06T19:56:07.364Z,65.65
2019-03-06T19:59:03.155Z,73.87
2019-03-06T20:01:57.783Z,71.22
2019-03-06T20:04:52.513Z,78.92
2019-03-06T20:07:47.223Z,59.77
2019-03-06T20:10:42.245Z,79.35
2019-03-06T20:13:36.864Z,77.78
2019-03-06T20:16:31.352Z,64.27
2019-03-06T20:19:25.744Z,76.82
2019-03-06T20:22:20.174Z,70.22
2019-03-06T20:25:15.107Z,58.50
2019-03-06T20:28:11.072Z,61.20
2019-03-06T20:31:05.769Z,72.62
2019-03-06T20:34:00.386Z,65.45
2019-03-06T20:36:56.067Z,71.17
2019-03-06T20:39:52.278Z,80.47
2019-03-06T20:42:48.125Z,73.12
2019-03-06T20:45:42.512Z,65.65
2019-03-06T20:48:37.165Z,67.82
2019-03-06T20:51:31.682Z,83.97
2019-03-06T20:54:27.446Z,73.90
2019-03-06T20:57:22.073Z,73.45
2019-03-06T21:00:20.093Z,72.22
2019-03-06T21:03:14.548Z,74.15
2019-03-06T21:06:09.028Z,76.77
2019-03-06T21:09:03.418Z,88.33
2019-03-06T21:11:59.509Z,94.35
2019-03-06T21:14:53.873Z,90.65
2019-03-06T21:17:48.513Z,72.97
2019-03-06T21:20:43.313Z,79.10
2019-03-06T21:23:37.831Z,69.58
2019-03-06T21:26:35.294Z,67.92
2019-03-06T21:29:29.886Z,65.15
2019-03-06T21:32:24.276Z,57.55
2019-03-06T21:35:19.654Z,59.90
2019-03-06T21:38:14.235Z,58.68
2019-03-06T21:41:08.741Z,52.30
2019-03-06T21:44:03.579Z,45.23
2019-03-06T21:46:59.207Z,64.10
2019-03-06T21:49:53.981Z,52.40
2019-03-06T21:52:48.364Z,60.75
2019-03-06T21:55:42.813Z,48.60
2019-03-06T21:58:37.130Z,49.38
2019-03-06T22:01:33.081Z,43.50
2019-03-06T22:04:28.048Z,48.52
2019-03-06T22:07:22.881Z,40.55
2019-03-06T22:10:17.785Z,53.70
2019-03-06T22:13:12.113Z,48.05
2019-03-06T22:16:06.971Z,46.42
2019-03-06T22:19:01.855Z,37.28
2019-03-06T22:21:56.468Z,45.67
2019-03-06T22:24:50.920Z,41.37
2019-03-06T22:27:45.559Z,39.30
2019-03-06T22:30:40.378Z,40.65
2019-03-06T22:33:35.274Z,26.48
2019-03-06T22:36:31.846Z,33.88
2019-03-06T22:39:26.568Z,41.15
2019-03-06T22:42:21.354Z,32.10
2019-03-06T22:45:17.033Z,39.25
2019-03-06T22:48:11.366Z,43.85
2019-03-06T22:51:05.871Z,46.08
2019-03-06T22:54:00.334Z,36.50
2019-03-06T22:56:54.788Z,48.15
2019-03-06T22:59:50.621Z,43.50
2019-03-06T23:02:45.564Z,38.78
2019-03-06T23:05:40.130Z,32.48
2019-03-06T23:08:34.410Z,32.45
2019-03-06T23:11:29.326Z,32.93
2019-03-06T23:14:23.706Z,35.85
2019-03-06T23:17:18.197Z,36.35
2019-03-06T23:20:13.233Z,35.53
2019-03-06T23:23:07.639Z,33.30
2019-03-06T23:26:02.397Z,35.83
2019-03-06T23:28:57.959Z,33.02
2019-03-06T23:31:53.210Z,33.18
2019-03-06T23:34:47.881Z,38.53
2019-03-06T23:37:42.394Z,36.55
2019-03-06T23:40:37.049Z,43.68
2019-03-06T23:43:31.783Z,38.55
2019-03-06T23:46:26.308Z,35.25
2019-03-06T23:49:20.973Z,30.25
2019-03-06T23:52:23.482Z,42.40
2019-03-06T23:55:17.831Z,37.85
2019-03-06T23:58:12.453Z,31.87
